createdAt,value
2022-09-24T00:00:04.318Z,101071.75
2022-09-24T00:03:05.938Z,101069.28
2022-09-24T00:06:09.138Z,101065.88
2022-09-24T00:09:12.571Z,101071.31
2022-09-24T00:12:14.110Z,101067.03
2022-09-24T00:15:15.709Z,101064.47
2022-09-24T00:18:18.607Z,101056.44
2022-09-24T00:21:24.093Z,101051.22
2022-09-24T00:24:44.081Z,101051.31
2022-09-24T00:27:45.618Z,101059.59
2022-09-24T00:30:47.116Z,101052.63
2022-09-24T00:33:52.327Z,101058.06
2022-09-24T00:36:54.276Z,101059.88
2022-09-24T00:39:56.240Z,101048.47
2022-09-24T00:42:57.846Z,101057.47
2022-09-24T00:46:06.005Z,101048.59
2022-09-24T00:49:13.520Z,101049.66
2022-09-24T00:52:17.381Z,101048.16
2022-09-24T00:55:21.774Z,101042.94
2022-09-24T00:58:24.145Z,101047.63
2022-09-24T01:01:25.823Z,101042.53
2022-09-24T01:04:28.607Z,101036.41
2022-09-24T01:07:30.298Z,101034.00
2022-09-24T01:10:47.955Z,101028.88
2022-09-24T01:14:10.040Z,101028.13
2022-09-24T01:17:39.338Z,101026.63
2022-09-24T01:20:56.800Z,101025.88
2022-09-24T01:24:40.425Z,101024.19
2022-09-24T01:28:23.145Z,101017.34
2022-09-24T01:31:32.297Z,101014.88
2022-09-24T01:34:41.480Z,101011.47
2022-09-24T01:37:48.149Z,101008.06
2022-09-24T01:40:51.853Z,101011.81
2022-09-24T01:43:54.433Z,101011.06
2022-09-24T01:46:56.020Z,101002.41
2022-09-24T01:49:57.815Z,100999.00
2022-09-24T01:53:11.851Z,101000.72
2022-09-24T01:56:44.599Z,100998.06
2022-09-24T02:00:00.238Z,100995.47
2022-09-24T02:03:17.269Z,100989.38
2022-09-24T02:06:44.291Z,100983.19
2022-09-24T02:09:45.998Z,100986.84
2022-09-24T02:12:56.681Z,100981.50
2022-09-24T02:16:02.374Z,100978.84
2022-09-24T02:19:11.799Z,100982.44
2022-09-24T02:22:14.536Z,100982.44
2022-09-24T02:25:25.183Z,100972.75
2022-09-24T02:28:26.986Z,100980.75
2022-09-24T02:31:32.400Z,100977.25
2022-09-24T02:34:42.420Z,100975.63
2022-09-24T02:37:44.577Z,100967.63
2022-09-24T02:40:47.649Z,100972.09
2022-09-24T02:43:49.777Z,100967.72
2022-09-24T02:46:51.401Z,100961.75
2022-09-24T02:49:52.995Z,100960.16
2022-09-24T02:52:54.970Z,100958.56
2022-09-24T02:55:57.365Z,100954.28
2022-09-24T02:59:01.005Z,100940.09
2022-09-24T03:02:03.340Z,100950.03
2022-09-24T03:05:05.306Z,100936.78
2022-09-24T03:08:07.672Z,100945.66
2022-09-24T03:11:15.081Z,100945.66
2022-09-24T03:14:19.529Z,100938.50
2022-09-24T03:17:21.046Z,100947.34
2022-09-24T03:20:24.241Z,100945.56
2022-09-24T03:23:25.946Z,100949.06
2022-09-24T03:26:27.549Z,100939.25
2022-09-24T03:29:47.820Z,100942.75
2022-09-24T03:32:49.585Z,100943.63
2022-09-24T03:35:55.732Z,100933.91
2022-09-24T03:38:57.810Z,100935.72
2022-09-24T03:41:59.372Z,100938.38
2022-09-24T03:45:01.290Z,100935.63
2022-09-24T03:48:02.819Z,100929.31
2022-09-24T03:51:12.866Z,100929.09
2022-09-24T03:54:14.525Z,100925.56
2022-09-24T03:57:16.417Z,100923.88
2022-09-24T04:00:18.144Z,100935.41
2022-09-24T04:03:21.475Z,100923.00
2022-09-24T04:06:26.068Z,100918.63
2022-09-24T04:09:27.756Z,100917.81
2022-09-24T04:12:29.717Z,100923.00
2022-09-24T04:15:31.430Z,100920.34
2022-09-24T04:18:38.292Z,100913.06
2022-09-24T04:21:40.713Z,100915.88
2022-09-24T04:24:42.212Z,100920.22
2022-09-24T04:27:44.941Z,100909.56
2022-09-24T04:30:46.429Z,100910.53
2022-09-24T04:33:47.980Z,100908.81
2022-09-24T04:36:49.630Z,100908.81
2022-09-24T04:39:51.526Z,100902.63
2022-09-24T04:42:53.561Z,100903.47
2022-09-24T04:45:58.807Z,100902.53
2022-09-24T04:49:01.154Z,100901.88
2022-09-24T04:52:03.062Z,100899.22
2022-09-24T04:55:05.504Z,100897.63
2022-09-24T04:58:07.357Z,100898.47
2022-09-24T05:01:09.496Z,100893.13
2022-09-24T05:04:11.093Z,100901.13
2022-09-24T05:07:13.049Z,100899.13
2022-09-24T05:10:14.647Z,100897.06
2022-09-24T05:13:16.325Z,100905.06
2022-09-24T05:16:17.891Z,100905.19
2022-09-24T05:19:20.114Z,100913.19
2022-09-24T05:22:21.787Z,100907.28
2022-09-24T05:25:24.029Z,100907.03
2022-09-24T05:28:25.652Z,100908.75
2022-09-24T05:31:27.915Z,100909.50
2022-09-24T05:34:30.260Z,100905.75
2022-09-24T05:37:32.635Z,100916.22
2022-09-24T05:40:49.748Z,100908.09
2022-09-24T05:43:51.482Z,100914.94
2022-09-24T05:46:53.432Z,100915.44
2022-09-24T05:49:55.039Z,100918.72
2022-09-24T05:52:57.350Z,100913.28
2022-09-24T05:55:59.017Z,100912.94
2022-09-24T05:59:01.078Z,100912.72
2022-09-24T06:02:03.042Z,100917.72
2022-09-24T06:05:05.057Z,100916.81
2022-09-24T06:08:08.690Z,100921.72
2022-09-24T06:11:10.956Z,100928.09
2022-09-24T06:14:13.113Z,100917.41
2022-09-24T06:17:15.652Z,100920.38
2022-09-24T06:20:18.296Z,100917.22
2022-09-24T06:23:23.836Z,100920.97
2022-09-24T06:26:26.503Z,100929.31
2022-09-24T06:29:28.630Z,100927.00
2022-09-24T06:32:30.977Z,100928.06
2022-09-24T06:35:39.960Z,100932.78
2022-09-24T06:38:41.888Z,100934.84
2022-09-24T06:41:43.569Z,100931.44
2022-09-24T06:44:45.148Z,100931.53
2022-09-24T06:47:55.258Z,100936.25
2022-09-24T06:50:56.898Z,100937.41
2022-09-24T06:53:58.496Z,100939.13
2022-09-24T06:57:00.118Z,100935.72
2022-09-24T07:00:01.898Z,100937.53
2022-09-24T07:03:03.711Z,100941.06
2022-09-24T07:06:06.716Z,100951.75
2022-09-24T07:09:08.278Z,100941.16
2022-09-24T07:12:10.381Z,100947.50
2022-09-24T07:15:12.249Z,100943.00
2022-09-24T07:18:13.975Z,100942.16
2022-09-24T07:21:15.505Z,100943.00
2022-09-24T07:24:17.203Z,100942.88
2022-09-24T07:27:21.217Z,100949.94
2022-09-24T07:30:22.756Z,100951.63
2022-09-24T07:33:24.354Z,100949.81
2022-09-24T07:36:26.005Z,100955.91
2022-09-24T07:39:27.720Z,100953.88
2022-09-24T07:42:30.134Z,100958.22
2022-09-24T07:45:33.462Z,100959.47
2022-09-24T07:48:35.155Z,100961.72
2022-09-24T07:51:36.724Z,100963.44
2022-09-24T07:54:38.636Z,100968.66
2022-09-24T07:57:40.314Z,100959.78
2022-09-24T08:00:42.291Z,100960.53
2022-09-24T08:03:45.113Z,100964.91
2022-09-24T08:06:47.669Z,100963.97
2022-09-24T08:09:49.538Z,100964.69
2022-09-24T08:12:51.522Z,100960.22
2022-09-24T08:15:59.753Z,100971.50
2022-09-24T08:19:01.389Z,100964.47
2022-09-24T08:22:05.353Z,100970.63
2022-09-24T08:25:07.869Z,100970.63
2022-09-24T08:28:13.217Z,100964.47
2022-09-24T08:31:14.870Z,100967.75
2022-09-24T08:34:16.512Z,100967.63
2022-09-24T08:37:18.309Z,100968.38
2022-09-24T08:40:26.465Z,100965.72
2022-09-24T08:43:52.973Z,100968.38
2022-09-24T08:47:17.576Z,100963.78
2022-09-24T08:50:23.360Z,100956.53
2022-09-24T08:54:03.720Z,100967.00
2022-09-24T08:57:13.119Z,100972.94
2022-09-24T09:00:15.820Z,100968.59
2022-09-24T09:03:49.855Z,100976.25
2022-09-24T09:07:10.126Z,100970.78
2022-09-24T09:10:27.918Z,100980.41
2022-09-24T09:13:50.016Z,100973.97
2022-09-24T09:17:06.773Z,100980.81
2022-09-24T09:20:17.657Z,100985.09
2022-09-24T09:23:29.820Z,100989.34
2022-09-24T09:26:31.800Z,100983.75
2022-09-24T09:29:34.556Z,100980.75
2022-09-24T09:32:45.403Z,100973.25
2022-09-24T09:36:02.905Z,100978.03
2022-09-24T09:39:30.801Z,100980.56
2022-09-24T09:42:36.322Z,100980.34
2022-09-24T09:46:11.714Z,100976.72
2022-09-24T09:49:14.293Z,100972.22
2022-09-24T09:52:20.933Z,100973.81
2022-09-24T09:55:33.106Z,100968.47
2022-09-24T09:58:37.618Z,100972.09
2022-09-24T10:01:42.114Z,100963.09
2022-09-24T10:04:43.949Z,100962.03
2022-09-24T10:07:45.693Z,100972.38
2022-09-24T10:10:59.380Z,100965.06
2022-09-24T10:14:05.316Z,100968.47
2022-09-24T10:17:07.067Z,100974.69
2022-09-24T10:20:17.687Z,100977.22
2022-09-24T10:23:22.986Z,100976.25
2022-09-24T10:26:36.983Z,100975.16
2022-09-24T10:29:59.574Z,100975.44
2022-09-24T10:33:03.873Z,100977.94
2022-09-24T10:36:08.545Z,100969.28
2022-09-24T10:39:15.416Z,100977.91
2022-09-24T10:42:24.935Z,100977.53
2022-09-24T10:45:38.711Z,100976.53
2022-09-24T10:48:54.125Z,100975.59
2022-09-24T10:52:14.147Z,100977.53
2022-09-24T10:55:34.288Z,100967.06
2022-09-24T10:58:35.837Z,100967.22
2022-09-24T11:01:49.670Z,100968.31
2022-09-24T11:04:56.391Z,100975.72
2022-09-24T11:08:22.057Z,100968.78
2022-09-24T11:11:41.580Z,100978.91
2022-09-24T11:14:55.429Z,100970.00
2022-09-24T11:18:14.466Z,100975.38
2022-09-24T11:21:21.678Z,100973.56
2022-09-24T11:24:45.883Z,100976.34
2022-09-24T11:28:14.116Z,100974.50
2022-09-24T11:31:37.685Z,100980.50
2022-09-24T11:34:54.619Z,100978.78
2022-09-24T11:38:14.423Z,100977.06
2022-09-24T11:41:58.420Z,100976.34
2022-09-24T11:45:27.317Z,100978.16
2022-09-24T11:48:50.569Z,100977.56
2022-09-24T11:51:58.092Z,100977.66
2022-09-24T11:55:23.898Z,100981.34
2022-09-24T11:58:30.857Z,100976.84
2022-09-24T12:01:37.046Z,100977.56
2022-09-24T12:04:53.741Z,100977.34
2022-09-24T12:07:58.314Z,100979.88
2022-09-24T12:11:05.830Z,100977.06
2022-09-24T12:14:28.827Z,100979.63
2022-09-24T12:17:41.114Z,100973.41
2022-09-24T12:20:51.949Z,100975.97
2022-09-24T12:24:02.933Z,100971.34
2022-09-24T12:27:13.806Z,100968.53
2022-09-24T12:30:49.541Z,100966.59
2022-09-24T12:34:03.101Z,100964.53
2022-09-24T12:37:10.240Z,100957.94
2022-09-24T12:40:12.094Z,100964.63
2022-09-24T12:43:26.427Z,100966.31
2022-09-24T12:46:39.976Z,100965.34
2022-09-24T12:49:41.817Z,100971.19
2022-09-24T12:52:43.604Z,100966.53
2022-09-24T12:55:45.791Z,100965.59
2022-09-24T12:58:49.512Z,100965.59
2022-09-24T13:01:51.341Z,100963.63
2022-09-24T13:05:01.984Z,100955.81
2022-09-24T13:08:22.932Z,100956.44
2022-09-24T13:11:37.490Z,100952.78
2022-09-24T13:14:43.471Z,100946.41
2022-09-24T13:17:46.678Z,100948.44
2022-09-24T13:21:00.276Z,100951.13
2022-09-24T13:24:11.357Z,100947.00
2022-09-24T13:27:45.294Z,100949.09
2022-09-24T13:30:53.759Z,100951.75
2022-09-24T13:34:10.362Z,100950.44
2022-09-24T13:37:21.560Z,100947.50
2022-09-24T13:40:28.775Z,100942.41
2022-09-24T13:43:47.874Z,100944.47
2022-09-24T13:46:57.361Z,100947.16
2022-09-24T13:50:20.940Z,100948.75
2022-09-24T13:53:49.655Z,100947.78
2022-09-24T13:57:11.632Z,100955.53
2022-09-24T14:00:17.105Z,100947.50
2022-09-24T14:03:55.919Z,100945.81
2022-09-24T14:07:02.171Z,100936.69
2022-09-24T14:10:27.038Z,100949.84
2022-09-24T14:13:28.776Z,100949.47
2022-09-24T14:16:30.510Z,100944.69
2022-09-24T14:19:34.596Z,100948.84
2022-09-24T14:22:41.539Z,100945.91
2022-09-24T14:25:43.611Z,100943.09
2022-09-24T14:28:45.708Z,100941.38
2022-09-24T14:31:57.333Z,100941.38
2022-09-24T14:35:32.541Z,100939.44
2022-09-24T14:38:44.444Z,100934.78
2022-09-24T14:41:46.179Z,100942.13
2022-09-24T14:44:49.533Z,100938.44
2022-09-24T14:48:24.987Z,100928.72
2022-09-24T14:51:29.256Z,100937.13
2022-09-24T14:54:40.321Z,100938.97
2022-09-24T14:57:48.060Z,100925.56
2022-09-24T15:00:55.529Z,100931.63
2022-09-24T15:04:07.952Z,100931.63
2022-09-24T15:07:18.586Z,100932.84
2022-09-24T15:10:22.327Z,100925.09
2022-09-24T15:13:36.069Z,100933.38
2022-09-24T15:16:37.769Z,100934.34
2022-09-24T15:19:43.205Z,100924.63
2022-09-24T15:22:46.727Z,100933.38
2022-09-24T15:25:48.550Z,100931.44
2022-09-24T15:28:50.850Z,100924.81
2022-09-24T15:31:54.118Z,100931.75
2022-09-24T15:34:56.684Z,100928.97
2022-09-24T15:37:58.649Z,100933.06
2022-09-24T15:41:00.503Z,100929.28
2022-09-24T15:44:02.129Z,100934.50
2022-09-24T15:47:03.837Z,100926.47
2022-09-24T15:50:05.849Z,100924.63
2022-09-24T15:53:17.252Z,100929.25
2022-09-24T15:56:19.614Z,100931.06
2022-09-24T15:59:22.475Z,100931.06
2022-09-24T16:02:29.174Z,100927.94
2022-09-24T16:05:30.869Z,100927.94
2022-09-24T16:08:32.404Z,100933.28
2022-09-24T16:11:34.081Z,100929.91
2022-09-24T16:14:35.685Z,100936.22
2022-09-24T16:17:38.616Z,100933.78
2022-09-24T16:20:40.705Z,100935.03
2022-09-24T16:23:42.409Z,100948.13
2022-09-24T16:26:44.184Z,100936.31
2022-09-24T16:29:45.809Z,100939.44
2022-09-24T16:32:47.464Z,100947.16
2022-09-24T16:35:49.324Z,100944.88
2022-09-24T16:38:51.059Z,100944.38
2022-09-24T16:41:53.013Z,100936.72
2022-09-24T16:44:54.581Z,100940.91
2022-09-24T16:47:56.228Z,100939.41
2022-09-24T16:51:09.573Z,100948.56
2022-09-24T16:54:13.144Z,100948.94
2022-09-24T16:57:14.870Z,100950.03
2022-09-24T17:00:16.705Z,100951.25
2022-09-24T17:03:18.299Z,100954.19
2022-09-24T17:06:23.411Z,100957.09
2022-09-24T17:09:43.549Z,100952.84
2022-09-24T17:12:48.288Z,100954.06
2022-09-24T17:15:49.942Z,100952.50
2022-09-24T17:18:54.551Z,100961.50
2022-09-24T17:21:56.295Z,100950.06
2022-09-24T17:24:58.069Z,100955.53
2022-09-24T17:27:59.741Z,100959.03
2022-09-24T17:31:02.124Z,100958.22
2022-09-24T17:34:10.239Z,100957.38
2022-09-24T17:37:12.076Z,100962.81
2022-09-24T17:40:19.943Z,100966.59
2022-09-24T17:43:25.078Z,100968.31
2022-09-24T17:46:32.066Z,100968.19
2022-09-24T17:49:34.613Z,100973.28
2022-09-24T17:52:36.128Z,100977.47
2022-09-24T17:55:38.172Z,100977.94
2022-09-24T17:58:42.282Z,100979.25
2022-09-24T18:01:45.023Z,100979.75
2022-09-24T18:04:46.784Z,100981.22
2022-09-24T18:07:48.531Z,100988.00
2022-09-24T18:11:03.954Z,100991.19
2022-09-24T18:14:05.710Z,100993.63
2022-09-24T18:17:08.281Z,100999.94
2022-09-24T18:20:10.115Z,101004.56
2022-09-24T18:23:12.761Z,101009.22
2022-09-24T18:26:20.099Z,101026.47
2022-09-24T18:29:22.032Z,101032.34
2022-09-24T18:32:24.398Z,101036.50
2022-09-24T18:35:26.115Z,101038.91
2022-09-24T18:38:29.990Z,101041.34
2022-09-24T18:41:32.049Z,101033.06
2022-09-24T18:44:33.891Z,101038.16
2022-09-24T18:47:38.237Z,101051.03
2022-09-24T18:50:44.057Z,101048.06
2022-09-24T18:53:51.580Z,101051.19
2022-09-24T18:56:53.138Z,101051.47
2022-09-24T18:59:54.694Z,101054.50
2022-09-24T19:02:56.579Z,101059.84
2022-09-24T19:06:03.570Z,101061.66
2022-09-24T19:09:06.100Z,101062.00
2022-09-24T19:12:08.832Z,101065.00
2022-09-24T19:15:10.500Z,101066.97
2022-09-24T19:18:14.571Z,101068.91
2022-09-24T19:21:16.591Z,101063.69
2022-09-24T19:24:21.173Z,101070.13
2022-09-24T19:27:22.776Z,101075.69
2022-09-24T19:30:24.422Z,101076.13
2022-09-24T19:33:26.157Z,101078.28
2022-09-24T19:36:27.692Z,101075.09
2022-09-24T19:39:29.256Z,101079.00
2022-09-24T19:42:31.617Z,101080.19
2022-09-24T19:45:33.213Z,101084.03
2022-09-24T19:48:39.753Z,101083.19
2022-09-24T19:51:41.422Z,101089.59
2022-09-24T19:54:44.573Z,101092.53
2022-09-24T19:57:46.193Z,101080.25
2022-09-24T20:00:47.869Z,101086.53
2022-09-24T20:03:50.036Z,101085.69
2022-09-24T20:06:51.717Z,101087.63
2022-09-24T20:09:53.367Z,101089.44
2022-09-24T20:12:55.055Z,101088.59
2022-09-24T20:16:04.057Z,101090.50
2022-09-24T20:19:05.639Z,101091.59
2022-09-24T20:22:08.870Z,101089.91
2022-09-24T20:25:11.719Z,101088.38
2022-09-24T20:28:16.454Z,101089.47
2022-09-24T20:31:20.921Z,101081.78
2022-09-24T20:34:24.888Z,101096.13
2022-09-24T20:37:26.484Z,101083.16
2022-09-24T20:40:28.101Z,101088.84
2022-09-24T20:43:32.416Z,101093.47
2022-09-24T20:46:34.115Z,101091.75
2022-09-24T20:49:35.745Z,101102.53
2022-09-24T20:52:37.403Z,101104.47
2022-09-24T20:55:39.328Z,101105.44
2022-09-24T20:58:41.575Z,101103.72
2022-09-24T21:01:43.362Z,101111.97
2022-09-24T21:04:45.044Z,101111.09
2022-09-24T21:07:46.643Z,101108.44
2022-09-24T21:10:48.229Z,101114.72
2022-09-24T21:13:52.584Z,101106.84
2022-09-24T21:16:55.180Z,101112.25
2022-09-24T21:19:56.831Z,101116.78
2022-09-24T21:23:00.154Z,101115.19
2022-09-24T21:26:09.936Z,101107.47
2022-09-24T21:29:12.971Z,101115.72
2022-09-24T21:32:17.419Z,101109.84
2022-09-24T21:35:19.018Z,101119.78
2022-09-24T21:38:20.576Z,101116.25
2022-09-24T21:41:24.352Z,101117.94
2022-09-24T21:44:26.098Z,101115.50
2022-09-24T21:47:27.661Z,101117.31
2022-09-24T21:50:29.792Z,101118.28
2022-09-24T21:53:32.380Z,101120.84
2022-09-24T21:56:35.708Z,101116.34
2022-09-24T21:59:56.031Z,101113.47
2022-09-24T22:02:57.662Z,101124.03
2022-09-24T22:06:03.453Z,101116.13
2022-09-24T22:09:07.157Z,101117.75
2022-09-24T22:12:09.146Z,101122.97
2022-09-24T22:15:11.233Z,101114.84
2022-09-24T22:18:13.083Z,101118.16
2022-09-24T22:21:15.018Z,101115.38
2022-09-24T22:24:16.596Z,101120.72
2022-09-24T22:27:19.517Z,101118.06
2022-09-24T22:30:21.143Z,101120.00
2022-09-24T22:33:42.539Z,101114.75
2022-09-24T22:36:44.093Z,101112.28
2022-09-24T22:39:45.743Z,101109.59
2022-09-24T22:42:47.458Z,101104.38
2022-09-24T22:45:49.028Z,101105.34
2022-09-24T22:48:50.570Z,101100.22
2022-09-24T22:51:52.170Z,101103.00
2022-09-24T22:54:53.765Z,101101.38
2022-09-24T22:57:55.915Z,101106.72
2022-09-24T23:01:24.394Z,101105.13
2022-09-24T23:04:26.240Z,101103.44
2022-09-24T23:07:27.899Z,101110.59
2022-09-24T23:10:30.075Z,101097.25
2022-09-24T23:13:31.633Z,101102.69
2022-09-24T23:16:36.274Z,101101.84
2022-09-24T23:19:49.935Z,101098.44
2022-09-24T23:22:51.463Z,101098.50
2022-09-24T23:25:53.380Z,101090.50
2022-09-24T23:28:56.593Z,101098.50
2022-09-24T23:31:58.185Z,101094.97
2022-09-24T23:34:59.743Z,101094.25
2022-09-24T23:38:01.358Z,101097.78
2022-09-24T23:41:04.644Z,101091.56
2022-09-24T23:44:06.781Z,101097.78
2022-09-24T23:47:08.456Z,101097.78
2022-09-24T23:50:10.121Z,101090.72
2022-09-24T23:53:12.683Z,101099.69
2022-09-24T23:56:15.292Z,101101.50
2022-09-24T23:59:16.824Z,101089.09
